UAL752 NGTA-PKMJ
Flight info
| Callsign | UAL752 |
|---|---|
| Flight time | 1h 3m |
| Altitude | 38000 |
| Route | BO R332 MAJ |
| Aircraft | B752/M-SDE3FGHIM3RWXY/LB1 |
Departure
| Time | 2026-05-04 01:33 |
|---|---|
| Airport | Bonriki International Airport (NGTA) |
Arrival
| Time | 2026-05-04 02:37 |
|---|---|
| Airport | Marshall Islands International Airport (PKMJ) |
| Time | Latitude | Longitude | Altitude | Speed | Heading |
|---|---|---|---|---|---|
| 2026-05-04 01:20 | 1.38060 | 173.14597 | 31 ft | 0 kts | 323° |
| 2026-05-04 01:30 | 1.38062 | 173.14595 | 31 ft | 2 kts | 323° |
| 2026-05-04 01:30 | 1.38097 | 173.14569 | 31 ft | 7 kts | 323° |
| 2026-05-04 01:31 | 1.38150 | 173.14555 | 31 ft | 9 kts | 346° |
| 2026-05-04 01:31 | 1.38190 | 173.14487 | 31 ft | 15 kts | 278° |
| 2026-05-04 01:31 | 1.38205 | 173.14362 | 31 ft | 20 kts | 277° |
| 2026-05-04 01:31 | 1.38226 | 173.14203 | 31 ft | 24 kts | 277° |
| 2026-05-04 01:32 | 1.38249 | 173.14015 | 30 ft | 28 kts | 277° |
| 2026-05-04 01:32 | 1.38247 | 173.13863 | 29 ft | 7 kts | 254° |
| 2026-05-04 01:32 | 1.38263 | 173.13838 | 29 ft | 2 kts | 2° |
| 2026-05-04 01:32 | 1.38271 | 173.13852 | 29 ft | 3 kts | 94° |
| 2026-05-04 01:33 | 1.38261 | 173.13928 | 30 ft | 35 kts | 96° |
| 2026-05-04 01:33 | 1.38193 | 173.14465 | 32 ft | 117 kts | 97° |
| 2026-05-04 01:33 | 1.38064 | 173.15472 | 298 ft | 162 kts | 94° |
| 2026-05-04 01:33 | 1.38431 | 173.16502 | 1032 ft | 173 kts | 41° |
| 2026-05-04 01:34 | 1.39534 | 173.16998 | 1722 ft | 186 kts | 13° |
| 2026-05-04 01:34 | 1.40882 | 173.16862 | 2297 ft | 210 kts | 338° |
| 2026-05-04 01:34 | 1.42092 | 173.15895 | 2828 ft | 238 kts | 315° |
| 2026-05-04 01:34 | 1.43246 | 173.14665 | 3497 ft | 254 kts | 319° |
| 2026-05-04 01:35 | 1.44659 | 173.13538 | 4194 ft | 268 kts | 331° |
| 2026-05-04 01:35 | 1.46324 | 173.12633 | 5092 ft | 274 kts | 337° |
| 2026-05-04 01:35 | 1.48066 | 173.11864 | 6081 ft | 277 kts | 340° |
| 2026-05-04 01:35 | 1.49860 | 173.11174 | 7008 ft | 281 kts | 342° |
| 2026-05-04 01:36 | 1.51696 | 173.10532 | 7925 ft | 284 kts | 342° |
| 2026-05-04 01:36 | 1.53598 | 173.09903 | 8783 ft | 290 kts | 343° |
| 2026-05-04 01:36 | 1.55517 | 173.09291 | 9718 ft | 292 kts | 343° |
| 2026-05-04 01:36 | 1.57481 | 173.08678 | 10477 ft | 301 kts | 343° |
| 2026-05-04 01:37 | 1.59559 | 173.08037 | 10914 ft | 321 kts | 343° |
| 2026-05-04 01:37 | 1.61761 | 173.07362 | 11312 ft | 341 kts | 343° |
| 2026-05-04 01:37 | 1.64085 | 173.06653 | 11781 ft | 355 kts | 343° |
| 2026-05-04 01:37 | 1.66440 | 173.05934 | 12576 ft | 358 kts | 343° |
| 2026-05-04 01:38 | 1.68858 | 173.05197 | 13316 ft | 363 kts | 343° |
| 2026-05-04 01:38 | 1.71282 | 173.04460 | 14063 ft | 366 kts | 342° |
| 2026-05-04 01:38 | 1.73736 | 173.03714 | 14666 ft | 373 kts | 342° |
| 2026-05-04 01:38 | 1.76222 | 173.02957 | 15406 ft | 375 kts | 342° |
| 2026-05-04 01:39 | 1.78770 | 173.02182 | 16037 ft | 381 kts | 342° |
| 2026-05-04 01:39 | 1.81307 | 173.01410 | 16667 ft | 386 kts | 342° |
| 2026-05-04 01:39 | 1.83882 | 173.00627 | 17328 ft | 389 kts | 341° |
| 2026-05-04 01:39 | 1.86482 | 172.99835 | 17947 ft | 393 kts | 342° |
| 2026-05-04 01:40 | 1.89138 | 172.99026 | 18587 ft | 397 kts | 342° |
| 2026-05-04 01:40 | 1.91798 | 172.98216 | 19202 ft | 400 kts | 342° |
| 2026-05-04 01:40 | 1.94447 | 172.97411 | 19807 ft | 403 kts | 342° |
| 2026-05-04 01:40 | 1.97175 | 172.96579 | 20365 ft | 407 kts | 342° |
| 2026-05-04 01:41 | 1.99896 | 172.95752 | 20937 ft | 411 kts | 342° |
| 2026-05-04 01:41 | 2.02640 | 172.94917 | 21462 ft | 414 kts | 342° |
| 2026-05-04 01:41 | 2.05394 | 172.94080 | 21992 ft | 418 kts | 342° |
| 2026-05-04 01:41 | 2.08211 | 172.93222 | 22515 ft | 421 kts | 342° |
| 2026-05-04 01:42 | 2.11031 | 172.92363 | 23028 ft | 425 kts | 342° |
| 2026-05-04 01:42 | 2.13892 | 172.91492 | 23508 ft | 430 kts | 342° |
| 2026-05-04 01:42 | 2.16774 | 172.90616 | 24030 ft | 433 kts | 342° |
| 2026-05-04 01:42 | 2.19664 | 172.89735 | 24514 ft | 437 kts | 342° |
| 2026-05-04 01:43 | 2.22596 | 172.88843 | 25003 ft | 440 kts | 342° |
| 2026-05-04 01:43 | 2.25524 | 172.87952 | 25490 ft | 443 kts | 342° |
| 2026-05-04 01:43 | 2.28468 | 172.87056 | 25975 ft | 446 kts | 342° |
| 2026-05-04 01:43 | 2.31458 | 172.86145 | 26427 ft | 450 kts | 342° |
| 2026-05-04 01:44 | 2.34510 | 172.85216 | 26874 ft | 454 kts | 343° |
| 2026-05-04 01:44 | 2.37536 | 172.84294 | 27338 ft | 457 kts | 343° |
| 2026-05-04 01:44 | 2.40581 | 172.83368 | 27774 ft | 460 kts | 343° |
| 2026-05-04 01:44 | 2.43667 | 172.82428 | 28184 ft | 464 kts | 343° |
| 2026-05-04 01:45 | 2.46787 | 172.81477 | 28612 ft | 467 kts | 343° |
| 2026-05-04 01:45 | 2.49910 | 172.80527 | 29036 ft | 470 kts | 343° |
| 2026-05-04 01:45 | 2.56177 | 172.78619 | 29838 ft | 475 kts | 343° |
| 2026-05-04 01:46 | 2.59377 | 172.77644 | 30232 ft | 478 kts | 343° |
| 2026-05-04 01:46 | 2.62590 | 172.76665 | 30664 ft | 480 kts | 343° |
| 2026-05-04 01:46 | 2.65772 | 172.75696 | 31015 ft | 482 kts | 343° |
| 2026-05-04 01:46 | 2.68982 | 172.74718 | 31436 ft | 483 kts | 343° |
| 2026-05-04 01:47 | 2.72196 | 172.73738 | 32072 ft | 479 kts | 343° |
| 2026-05-04 01:47 | 2.75389 | 172.72766 | 32584 ft | 477 kts | 343° |
| 2026-05-04 01:47 | 2.78575 | 172.71796 | 33097 ft | 475 kts | 343° |
| 2026-05-04 01:47 | 2.81724 | 172.70836 | 33640 ft | 473 kts | 343° |
| 2026-05-04 01:48 | 2.84889 | 172.69870 | 34186 ft | 471 kts | 343° |
| 2026-05-04 01:48 | 2.87997 | 172.68924 | 34695 ft | 468 kts | 343° |
| 2026-05-04 01:48 | 2.91133 | 172.67967 | 35173 ft | 467 kts | 343° |
| 2026-05-04 01:48 | 2.94247 | 172.67018 | 35616 ft | 465 kts | 343° |
| 2026-05-04 01:49 | 2.97357 | 172.66071 | 36013 ft | 464 kts | 343° |
| 2026-05-04 01:49 | 3.00483 | 172.65117 | 36355 ft | 464 kts | 343° |
| 2026-05-04 01:49 | 3.03554 | 172.64182 | 36681 ft | 464 kts | 343° |
| 2026-05-04 01:49 | 3.06644 | 172.63238 | 37025 ft | 464 kts | 343° |
| 2026-05-04 01:50 | 3.09759 | 172.62289 | 37385 ft | 462 kts | 343° |
| 2026-05-04 01:50 | 3.12834 | 172.61351 | 37719 ft | 461 kts | 343° |
| 2026-05-04 01:50 | 3.18998 | 172.59471 | 37804 ft | 459 kts | 343° |
| 2026-05-04 01:51 | 3.25119 | 172.57605 | 37803 ft | 458 kts | 343° |
| 2026-05-04 01:51 | 3.31240 | 172.55737 | 37802 ft | 459 kts | 343° |
| 2026-05-04 01:52 | 3.37319 | 172.53883 | 37805 ft | 457 kts | 343° |
| 2026-05-04 01:52 | 3.43463 | 172.52008 | 37805 ft | 459 kts | 343° |
| 2026-05-04 01:53 | 3.49565 | 172.50145 | 37801 ft | 458 kts | 343° |
| 2026-05-04 01:53 | 3.55607 | 172.48093 | 37804 ft | 458 kts | 341° |
| 2026-05-04 01:54 | 3.61674 | 172.46005 | 37803 ft | 457 kts | 341° |
| 2026-05-04 01:54 | 3.67711 | 172.43930 | 37803 ft | 458 kts | 341° |
| 2026-05-04 01:55 | 3.73767 | 172.41849 | 37802 ft | 458 kts | 341° |
| 2026-05-04 01:55 | 3.79788 | 172.39778 | 37800 ft | 458 kts | 341° |
| 2026-05-04 01:56 | 3.85852 | 172.37694 | 37805 ft | 459 kts | 341° |
| 2026-05-04 01:56 | 3.91869 | 172.35625 | 37810 ft | 457 kts | 341° |
| 2026-05-04 01:57 | 3.97905 | 172.33550 | 37813 ft | 456 kts | 341° |
| 2026-05-04 01:57 | 4.03946 | 172.31471 | 37815 ft | 458 kts | 341° |
| 2026-05-04 01:58 | 4.09964 | 172.29401 | 37818 ft | 457 kts | 341° |
| 2026-05-04 01:58 | 4.16018 | 172.27321 | 37824 ft | 458 kts | 341° |
| 2026-05-04 01:59 | 4.22035 | 172.25249 | 37823 ft | 458 kts | 341° |
| 2026-05-04 01:59 | 4.28096 | 172.23163 | 37823 ft | 457 kts | 341° |
| 2026-05-04 02:00 | 4.34114 | 172.21091 | 37824 ft | 457 kts | 341° |
| 2026-05-04 02:00 | 4.40158 | 172.19009 | 37822 ft | 457 kts | 341° |
| 2026-05-04 02:01 | 4.46216 | 172.16923 | 37822 ft | 458 kts | 341° |
| 2026-05-04 02:01 | 4.52279 | 172.14835 | 37822 ft | 460 kts | 341° |
| 2026-05-04 02:02 | 4.58345 | 172.12746 | 37821 ft | 459 kts | 341° |
| 2026-05-04 02:02 | 4.64393 | 172.10661 | 37821 ft | 458 kts | 341° |
| 2026-05-04 02:03 | 4.70425 | 172.08583 | 37819 ft | 458 kts | 341° |
| 2026-05-04 02:03 | 4.76471 | 172.06500 | 37816 ft | 459 kts | 341° |
| 2026-05-04 02:04 | 4.82520 | 172.04414 | 37818 ft | 459 kts | 341° |
| 2026-05-04 02:04 | 4.88592 | 172.02321 | 37817 ft | 460 kts | 341° |
| 2026-05-04 02:05 | 4.94658 | 172.00229 | 37819 ft | 460 kts | 341° |
| 2026-05-04 02:05 | 5.00706 | 171.98141 | 37820 ft | 459 kts | 341° |
| 2026-05-04 02:06 | 5.06794 | 171.96042 | 37812 ft | 459 kts | 341° |
| 2026-05-04 02:06 | 5.12836 | 171.93957 | 37806 ft | 460 kts | 341° |
| 2026-05-04 02:07 | 5.18928 | 171.91855 | 37806 ft | 461 kts | 341° |
| 2026-05-04 02:07 | 5.24985 | 171.89764 | 37806 ft | 461 kts | 341° |
| 2026-05-04 02:08 | 5.31083 | 171.87659 | 37807 ft | 462 kts | 341° |
| 2026-05-04 02:08 | 5.37165 | 171.85558 | 37807 ft | 460 kts | 341° |
| 2026-05-04 02:09 | 5.43188 | 171.83478 | 37806 ft | 454 kts | 341° |
| 2026-05-04 02:09 | 5.46127 | 171.82461 | 37783 ft | 440 kts | 341° |
| 2026-05-04 02:09 | 5.48996 | 171.81470 | 37697 ft | 427 kts | 341° |
| 2026-05-04 02:10 | 5.51821 | 171.80493 | 36969 ft | 428 kts | 341° |
| 2026-05-04 02:10 | 5.54643 | 171.79518 | 36086 ft | 431 kts | 341° |
| 2026-05-04 02:10 | 5.57453 | 171.78548 | 35252 ft | 433 kts | 341° |
| 2026-05-04 02:10 | 5.60318 | 171.77557 | 34374 ft | 435 kts | 340° |
| 2026-05-04 02:11 | 5.63180 | 171.76569 | 33688 ft | 427 kts | 340° |
| 2026-05-04 02:11 | 5.65994 | 171.75595 | 33032 ft | 430 kts | 340° |
| 2026-05-04 02:11 | 5.68844 | 171.74609 | 32406 ft | 442 kts | 340° |
| 2026-05-04 02:11 | 5.71802 | 171.73585 | 31786 ft | 450 kts | 341° |
| 2026-05-04 02:12 | 5.74743 | 171.72569 | 31152 ft | 451 kts | 341° |
| 2026-05-04 02:12 | 5.77732 | 171.71535 | 30500 ft | 447 kts | 341° |
| 2026-05-04 02:12 | 5.80678 | 171.70515 | 29861 ft | 446 kts | 341° |
| 2026-05-04 02:12 | 5.83620 | 171.69498 | 29223 ft | 446 kts | 341° |
| 2026-05-04 02:13 | 5.86553 | 171.68483 | 28585 ft | 445 kts | 341° |
| 2026-05-04 02:13 | 5.89440 | 171.67485 | 27971 ft | 441 kts | 341° |
| 2026-05-04 02:13 | 5.92324 | 171.66487 | 27353 ft | 435 kts | 341° |
| 2026-05-04 02:13 | 5.95204 | 171.65489 | 26742 ft | 430 kts | 341° |
| 2026-05-04 02:14 | 5.98014 | 171.64517 | 26149 ft | 426 kts | 341° |
| 2026-05-04 02:14 | 6.00815 | 171.63547 | 25562 ft | 423 kts | 341° |
| 2026-05-04 02:14 | 6.03576 | 171.62592 | 24984 ft | 420 kts | 341° |
| 2026-05-04 02:14 | 6.06323 | 171.61641 | 24404 ft | 417 kts | 341° |
| 2026-05-04 02:15 | 6.09078 | 171.60686 | 23817 ft | 413 kts | 341° |
| 2026-05-04 02:15 | 6.11782 | 171.59749 | 23254 ft | 409 kts | 341° |
| 2026-05-04 02:15 | 6.14480 | 171.58815 | 22697 ft | 407 kts | 341° |
| 2026-05-04 02:15 | 6.17167 | 171.57884 | 22143 ft | 406 kts | 341° |
| 2026-05-04 02:16 | 6.19810 | 171.56967 | 21604 ft | 403 kts | 341° |
| 2026-05-04 02:16 | 6.22452 | 171.56052 | 21063 ft | 399 kts | 341° |
| 2026-05-04 02:16 | 6.25054 | 171.55150 | 20529 ft | 395 kts | 342° |
| 2026-05-04 02:16 | 6.27660 | 171.54246 | 19993 ft | 391 kts | 342° |
| 2026-05-04 02:17 | 6.30239 | 171.53352 | 19462 ft | 388 kts | 342° |
| 2026-05-04 02:17 | 6.32767 | 171.52477 | 18939 ft | 385 kts | 342° |
| 2026-05-04 02:17 | 6.35281 | 171.51605 | 18416 ft | 382 kts | 342° |
| 2026-05-04 02:17 | 6.37801 | 171.50731 | 17892 ft | 379 kts | 342° |
| 2026-05-04 02:18 | 6.40292 | 171.49867 | 17370 ft | 376 kts | 342° |
| 2026-05-04 02:18 | 6.42734 | 171.49020 | 16864 ft | 373 kts | 342° |
| 2026-05-04 02:18 | 6.45182 | 171.48172 | 16353 ft | 370 kts | 342° |
| 2026-05-04 02:18 | 6.47611 | 171.47330 | 15844 ft | 366 kts | 342° |
| 2026-05-04 02:19 | 6.50032 | 171.46490 | 15331 ft | 363 kts | 342° |
| 2026-05-04 02:19 | 6.52397 | 171.45670 | 14828 ft | 359 kts | 342° |
| 2026-05-04 02:19 | 6.54740 | 171.44856 | 14330 ft | 356 kts | 341° |
| 2026-05-04 02:19 | 6.57092 | 171.44040 | 13825 ft | 353 kts | 341° |
| 2026-05-04 02:20 | 6.59423 | 171.43231 | 13321 ft | 350 kts | 341° |
| 2026-05-04 02:20 | 6.61701 | 171.42441 | 12828 ft | 346 kts | 341° |
| 2026-05-04 02:20 | 6.63971 | 171.41652 | 12342 ft | 343 kts | 341° |
| 2026-05-04 02:20 | 6.66215 | 171.40874 | 11859 ft | 341 kts | 342° |
| 2026-05-04 02:21 | 6.68482 | 171.40086 | 11369 ft | 339 kts | 342° |
| 2026-05-04 02:21 | 6.70724 | 171.39307 | 10878 ft | 337 kts | 342° |
| 2026-05-04 02:21 | 6.72909 | 171.38548 | 10404 ft | 335 kts | 342° |
| 2026-05-04 02:21 | 6.75114 | 171.37782 | 10033 ft | 328 kts | 342° |
| 2026-05-04 02:22 | 6.77224 | 171.37048 | 10017 ft | 311 kts | 342° |
| 2026-05-04 02:22 | 6.79223 | 171.36354 | 9997 ft | 295 kts | 342° |
| 2026-05-04 02:22 | 6.81154 | 171.35683 | 9720 ft | 290 kts | 342° |
| 2026-05-04 02:22 | 6.83078 | 171.35016 | 9426 ft | 286 kts | 343° |
| 2026-05-04 02:23 | 6.84935 | 171.34370 | 9143 ft | 282 kts | 343° |
| 2026-05-04 02:23 | 6.86777 | 171.33730 | 8826 ft | 275 kts | 343° |
| 2026-05-04 02:23 | 6.88589 | 171.33099 | 8506 ft | 274 kts | 344° |
| 2026-05-04 02:23 | 6.90408 | 171.32469 | 8188 ft | 280 kts | 344° |
| 2026-05-04 02:24 | 6.92274 | 171.31821 | 7839 ft | 280 kts | 344° |
| 2026-05-04 02:24 | 6.94102 | 171.31184 | 7484 ft | 277 kts | 344° |
| 2026-05-04 02:24 | 6.95914 | 171.30554 | 7130 ft | 276 kts | 345° |
| 2026-05-04 02:24 | 6.97744 | 171.29918 | 6787 ft | 275 kts | 345° |
| 2026-05-04 02:25 | 6.99556 | 171.29289 | 6426 ft | 274 kts | 345° |
| 2026-05-04 02:25 | 7.01359 | 171.28662 | 6073 ft | 274 kts | 345° |
| 2026-05-04 02:25 | 7.03185 | 171.28082 | 5706 ft | 268 kts | 356° |
| 2026-05-04 02:25 | 7.04971 | 171.28175 | 5380 ft | 254 kts | 24° |
| 2026-05-04 02:26 | 7.06662 | 171.28706 | 5040 ft | 257 kts | 10° |
| 2026-05-04 02:26 | 7.08442 | 171.28488 | 4720 ft | 266 kts | 342° |
| 2026-05-04 02:26 | 7.09969 | 171.27403 | 4401 ft | 277 kts | 314° |
| 2026-05-04 02:26 | 7.10867 | 171.25644 | 4081 ft | 285 kts | 284° |
| 2026-05-04 02:27 | 7.10876 | 171.23660 | 3831 ft | 285 kts | 258° |
| 2026-05-04 02:27 | 7.10397 | 171.21748 | 3697 ft | 285 kts | 255° |
| 2026-05-04 02:27 | 7.09923 | 171.19939 | 3555 ft | 286 kts | 255° |
| 2026-05-04 02:27 | 7.09422 | 171.18007 | 3403 ft | 285 kts | 255° |
| 2026-05-04 02:28 | 7.08929 | 171.16066 | 3222 ft | 284 kts | 259° |
| 2026-05-04 02:28 | 7.08932 | 171.14107 | 3027 ft | 280 kts | 288° |
| 2026-05-04 02:28 | 7.09627 | 171.12306 | 2873 ft | 276 kts | 298° |
| 2026-05-04 02:28 | 7.10420 | 171.10544 | 2782 ft | 274 kts | 298° |
| 2026-05-04 02:29 | 7.11198 | 171.08792 | 2737 ft | 274 kts | 298° |
| 2026-05-04 02:29 | 7.11983 | 171.07024 | 2701 ft | 275 kts | 298° |
| 2026-05-04 02:29 | 7.12752 | 171.05293 | 2673 ft | 274 kts | 298° |
| 2026-05-04 02:29 | 7.13538 | 171.03525 | 2641 ft | 274 kts | 298° |
| 2026-05-04 02:30 | 7.14302 | 171.01756 | 2609 ft | 275 kts | 292° |
| 2026-05-04 02:30 | 7.14520 | 170.99844 | 2605 ft | 281 kts | 262° |
| 2026-05-04 02:30 | 7.13828 | 170.98012 | 2620 ft | 283 kts | 232° |
| 2026-05-04 02:30 | 7.12394 | 170.96715 | 2634 ft | 274 kts | 202° |
| 2026-05-04 02:31 | 7.10599 | 170.96257 | 2649 ft | 264 kts | 174° |
| 2026-05-04 02:31 | 7.08771 | 170.96385 | 2638 ft | 262 kts | 168° |
| 2026-05-04 02:31 | 7.07003 | 170.96732 | 2625 ft | 252 kts | 149° |
| 2026-05-04 02:31 | 7.05667 | 170.97781 | 2657 ft | 240 kts | 120° |
| 2026-05-04 02:32 | 7.05027 | 170.99266 | 2678 ft | 232 kts | 100° |
| 2026-05-04 02:32 | 7.04622 | 171.00868 | 2660 ft | 234 kts | 101° |
| 2026-05-04 02:32 | 7.04200 | 171.02437 | 2641 ft | 233 kts | 101° |
| 2026-05-04 02:32 | 7.03784 | 171.04009 | 2609 ft | 233 kts | 101° |
| 2026-05-04 02:33 | 7.03367 | 171.05586 | 2469 ft | 235 kts | 101° |
| 2026-05-04 02:33 | 7.02947 | 171.07179 | 2282 ft | 232 kts | 101° |
| 2026-05-04 02:33 | 7.02528 | 171.08768 | 1950 ft | 233 kts | 101° |
| 2026-05-04 02:33 | 7.02257 | 171.10356 | 1730 ft | 229 kts | 84° |
| 2026-05-04 02:34 | 7.02510 | 171.11928 | 1741 ft | 235 kts | 76° |
| 2026-05-04 02:34 | 7.02913 | 171.13496 | 1713 ft | 223 kts | 72° |
| 2026-05-04 02:34 | 7.04261 | 171.17987 | 1697 ft | 211 kts | 75° |
| 2026-05-04 02:34 | 7.04600 | 171.19397 | 1257 ft | 205 kts | 75° |
| 2026-05-04 02:35 | 7.04924 | 171.20741 | 666 ft | 191 kts | 75° |
| 2026-05-04 02:35 | 7.05190 | 171.21912 | 637 ft | 151 kts | 74° |
| 2026-05-04 02:35 | 7.05420 | 171.22858 | 607 ft | 129 kts | 72° |
| 2026-05-04 02:35 | 7.05604 | 171.23654 | 540 ft | 107 kts | 75° |
| 2026-05-04 02:36 | 7.05785 | 171.24397 | 390 ft | 113 kts | 68° |
| 2026-05-04 02:36 | 7.05991 | 171.25166 | 217 ft | 114 kts | 72° |
| 2026-05-04 02:36 | 7.06187 | 171.25932 | 90 ft | 114 kts | 72° |
| 2026-05-04 02:36 | 7.06375 | 171.26706 | 20 ft | 110 kts | 69° |
| 2026-05-04 02:37 | 7.06546 | 171.27371 | 13 ft | 73 kts | 76° |
| 2026-05-04 02:37 | 7.06628 | 171.27708 | 12 ft | 38 kts | 76° |
| 2026-05-04 02:37 | 7.06671 | 171.27887 | 12 ft | 17 kts | 75° |
| 2026-05-04 02:37 | 7.06711 | 171.28043 | 12 ft | 20 kts | 75° |
| 2026-05-04 02:38 | 7.06772 | 171.28076 | 12 ft | 7 kts | 349° |
| 2026-05-04 02:38 | 7.06801 | 171.28081 | 12 ft | 3 kts | 41° |
| 2026-05-04 02:38 | 7.06817 | 171.28091 | 12 ft | 2 kts | 31° |
| 2026-05-04 02:38 | 7.06820 | 171.28093 | 12 ft | 0 kts | 31° |